createdAt,value
2023-03-01T00:01:51.524Z,-2.20
2023-03-01T00:04:20.173Z,-2.20
2023-03-01T00:06:48.745Z,-2.20
2023-03-01T00:09:17.974Z,-2.20
2023-03-01T00:11:48.589Z,-2.10
2023-03-01T00:14:18.485Z,-2.10
2023-03-01T00:16:48.097Z,-2.10
2023-03-01T00:19:18.743Z,-2.10
2023-03-01T00:21:47.412Z,-2.00
2023-03-01T00:24:16.483Z,-2.00
2023-03-01T00:26:45.538Z,-2.00
2023-03-01T00:29:15.495Z,-2.00
2023-03-01T00:31:44.105Z,-2.10
2023-03-01T00:34:12.767Z,-2.10
2023-03-01T00:36:41.373Z,-2.20
2023-03-01T00:39:13.650Z,-2.20
2023-03-01T00:41:42.346Z,-2.30
2023-03-01T00:44:11.258Z,-2.30
2023-03-01T00:46:41.289Z,-2.40
2023-03-01T00:49:09.963Z,-2.40
2023-03-01T00:51:40.411Z,-2.40
2023-03-01T00:54:10.764Z,-2.40
2023-03-01T00:56:39.490Z,-2.30
2023-03-01T00:59:08.136Z,-2.30
2023-03-01T01:01:36.912Z,-2.30
2023-03-01T01:04:09.540Z,-2.30
2023-03-01T01:06:43.434Z,-2.30
2023-03-01T01:09:18.352Z,-2.30
2023-03-01T01:11:48.195Z,-2.40
2023-03-01T01:14:17.418Z,-2.40
2023-03-01T01:16:46.443Z,-2.40
2023-03-01T01:19:17.461Z,-2.50
2023-03-01T01:21:46.458Z,-2.60
2023-03-01T01:24:15.049Z,-2.50
2023-03-01T01:26:43.907Z,-2.50
2023-03-01T01:29:13.222Z,-2.40
2023-03-01T01:31:44.071Z,-2.30
2023-03-01T01:34:17.817Z,-2.30
2023-03-01T01:36:49.824Z,-2.40
2023-03-01T01:39:18.512Z,-2.50
2023-03-01T01:41:47.128Z,-2.50
2023-03-01T01:44:19.032Z,-2.60
2023-03-01T01:46:51.198Z,-2.70
2023-03-01T01:49:31.019Z,-2.70
2023-03-01T01:52:04.668Z,-2.80
2023-03-01T01:54:40.737Z,-2.80
2023-03-01T01:57:14.337Z,-2.80
2023-03-01T01:59:47.770Z,-2.80
2023-03-01T02:02:16.609Z,-2.70
2023-03-01T02:04:47.081Z,-2.80
2023-03-01T02:07:18.521Z,-2.90
2023-03-01T02:09:50.062Z,-3.00
2023-03-01T02:12:21.420Z,-3.00
2023-03-01T02:14:49.983Z,-3.10
2023-03-01T02:17:19.703Z,-2.90
2023-03-01T02:20:00.155Z,-2.80
2023-03-01T02:22:32.259Z,-2.90
2023-03-01T02:25:12.133Z,-2.90
2023-03-01T02:27:51.260Z,-3.00
2023-03-01T02:30:22.883Z,-3.00
2023-03-01T02:32:52.230Z,-3.10
2023-03-01T02:35:22.034Z,-3.10
2023-03-01T02:37:50.759Z,-3.10
2023-03-01T02:40:22.700Z,-3.10
2023-03-01T02:42:55.524Z,-3.10
2023-03-01T02:45:25.967Z,-3.10
2023-03-01T02:47:56.350Z,-3.00
2023-03-01T02:50:47.227Z,-3.00
2023-03-01T02:53:21.956Z,-3.00
2023-03-01T02:55:51.047Z,-3.00
2023-03-01T02:58:19.783Z,-3.00
2023-03-01T03:00:50.454Z,-3.00
2023-03-01T03:03:21.864Z,-3.00
2023-03-01T03:05:50.843Z,-3.00
2023-03-01T03:08:25.277Z,-3.00
2023-03-01T03:10:55.084Z,-3.00
2023-03-01T03:13:29.384Z,-3.00
2023-03-01T03:15:59.995Z,-3.00
2023-03-01T03:18:28.634Z,-3.00
2023-03-01T03:20:57.221Z,-3.00
2023-03-01T03:23:26.118Z,-3.10
2023-03-01T03:25:54.632Z,-3.10
2023-03-01T03:28:23.234Z,-3.10
2023-03-01T03:30:52.224Z,-3.00
2023-03-01T03:33:22.087Z,-3.00
2023-03-01T03:35:52.005Z,-3.00
2023-03-01T03:38:23.080Z,-3.00
2023-03-01T03:40:53.811Z,-2.90
2023-03-01T03:43:24.829Z,-3.00
2023-03-01T03:45:55.054Z,-3.10
2023-03-01T03:48:26.109Z,-3.10
2023-03-01T03:50:56.391Z,-3.10
2023-03-01T03:53:26.776Z,-3.10
2023-03-01T03:55:56.028Z,-3.10
2023-03-01T03:58:26.544Z,-3.20
2023-03-01T04:00:57.820Z,-3.20
2023-03-01T04:03:29.582Z,-3.30
2023-03-01T04:06:00.523Z,-3.30
2023-03-01T04:08:29.310Z,-3.40
2023-03-01T04:11:22.581Z,-3.50
2023-03-01T04:13:51.490Z,-3.50
2023-03-01T04:16:20.266Z,-3.50
2023-03-01T04:18:50.434Z,-3.50
2023-03-01T04:21:19.126Z,-3.50
2023-03-01T05:42:14.624Z,-3.80
2023-03-01T05:44:43.213Z,-3.80
2023-03-01T05:47:11.736Z,-3.70
2023-03-01T05:49:40.277Z,-3.70
2023-03-01T05:52:17.175Z,-3.60
2023-03-01T05:54:45.762Z,-3.60
2023-03-01T05:57:15.890Z,-3.60
2023-03-01T05:59:44.518Z,-3.50
2023-03-01T06:02:13.075Z,-3.60
2023-03-01T06:04:41.877Z,-3.60
2023-03-01T06:07:10.503Z,-3.50
2023-03-01T06:09:40.418Z,-3.50
2023-03-01T06:12:09.012Z,-3.50
2023-03-01T06:14:39.018Z,-3.40
2023-03-01T06:17:07.562Z,-3.40
2023-03-01T06:19:36.120Z,-3.40
2023-03-01T06:22:04.648Z,-3.40
2023-03-01T06:24:34.203Z,-3.20
2023-03-01T06:27:02.794Z,-3.10
2023-03-01T06:29:31.455Z,-3.00
2023-03-01T06:32:01.464Z,-2.80
2023-03-01T06:34:30.110Z,-2.60
2023-03-01T06:36:59.803Z,-2.70
2023-03-01T06:39:30.282Z,-2.70
2023-03-01T06:41:58.928Z,-2.70
2023-03-01T06:44:27.884Z,-2.70
2023-03-01T06:46:56.524Z,-2.80
2023-03-01T06:49:26.869Z,-2.70
2023-03-01T06:51:55.421Z,-2.60
2023-03-01T06:54:24.262Z,-2.40
2023-03-01T06:56:53.328Z,-2.30
2023-03-01T06:59:22.188Z,-2.20
2023-03-01T07:01:50.758Z,-2.00
2023-03-01T07:04:19.272Z,-1.90
2023-03-01T07:06:55.299Z,-1.80
2023-03-01T07:09:24.499Z,-1.80
2023-03-01T07:11:53.225Z,-1.60
2023-03-01T07:14:21.906Z,-1.60
2023-03-01T07:16:50.444Z,-1.50
2023-03-01T07:19:19.008Z,-1.30
2023-03-01T07:21:49.010Z,-1.30
2023-03-01T07:24:17.501Z,-1.10
2023-03-01T07:26:46.011Z,-1.00
2023-03-01T07:29:14.513Z,-0.90
2023-03-01T07:31:43.091Z,-0.80
2023-03-01T07:34:11.812Z,-0.70
2023-03-01T07:36:40.706Z,-0.60
2023-03-01T07:39:11.398Z,-0.60
2023-03-01T07:41:40.135Z,-0.50
2023-03-01T07:44:08.885Z,-0.50
2023-03-01T07:46:37.400Z,-0.50
2023-03-01T07:49:06.491Z,-0.50
2023-03-01T07:51:35.285Z,-0.50
2023-03-01T07:54:03.900Z,-0.50
2023-03-01T07:56:34.093Z,-0.50
2023-03-01T07:59:02.769Z,-0.50
2023-03-01T08:01:31.440Z,-0.40
2023-03-01T08:04:00.030Z,-0.30
2023-03-01T08:06:28.923Z,-0.30
2023-03-01T08:08:57.530Z,-0.20
2023-03-01T08:11:26.171Z,-0.10
2023-03-01T08:13:56.475Z,0.20
2023-03-01T08:16:25.290Z,0.30
2023-03-01T08:18:57.024Z,0.40
2023-03-01T08:21:25.665Z,0.40
2023-03-01T08:23:54.214Z,0.50
2023-03-01T08:26:23.387Z,0.50
2023-03-01T08:28:53.258Z,0.60
2023-03-01T08:31:25.456Z,0.80
2023-03-01T08:33:57.379Z,0.90
2023-03-01T08:36:27.929Z,1.00
2023-03-01T08:38:56.752Z,1.20
2023-03-01T08:41:25.643Z,1.20
2023-03-01T08:43:59.656Z,1.30
2023-03-01T08:46:31.584Z,1.30
2023-03-01T08:49:00.381Z,1.40
2023-03-01T08:51:30.273Z,1.40
2023-03-01T08:53:58.881Z,1.50
2023-03-01T08:56:27.550Z,1.60
2023-03-01T08:58:56.080Z,1.70
2023-03-01T09:01:24.613Z,1.80
2023-03-01T09:03:54.673Z,1.80
2023-03-01T09:06:23.726Z,1.90
2023-03-01T09:08:53.006Z,1.80
2023-03-01T09:11:23.365Z,1.90
2023-03-01T09:13:52.256Z,1.70
2023-03-01T09:16:22.551Z,1.80
2023-03-01T09:18:52.445Z,1.90
2023-03-01T09:21:38.644Z,1.90
2023-03-01T09:24:08.937Z,2.00
2023-03-01T09:26:37.470Z,2.20
2023-03-01T09:29:06.102Z,2.20
2023-03-01T09:31:34.694Z,2.30
2023-03-01T09:34:03.230Z,2.30
2023-03-01T09:36:34.082Z,2.30
2023-03-01T09:39:03.373Z,2.40
2023-03-01T09:41:48.559Z,2.50
2023-03-01T09:44:32.321Z,2.50
2023-03-01T09:47:01.699Z,2.50
2023-03-01T09:49:33.647Z,2.70
2023-03-01T09:52:14.628Z,2.80
2023-03-01T09:54:43.382Z,2.80
2023-03-01T09:57:22.410Z,2.90
2023-03-01T10:00:05.631Z,2.80
2023-03-01T10:02:41.642Z,2.90
2023-03-01T10:05:26.117Z,3.10
2023-03-01T10:08:03.156Z,3.10
2023-03-01T10:10:36.418Z,3.10
2023-03-01T10:13:12.869Z,3.20
2023-03-01T10:15:45.674Z,3.30
2023-03-01T10:18:18.760Z,3.40
2023-03-01T10:20:53.076Z,3.40
2023-03-01T10:23:24.601Z,3.40
2023-03-01T10:26:09.253Z,3.50
2023-03-01T10:28:49.702Z,3.50
2023-03-01T10:31:23.277Z,3.60
2023-03-01T10:33:55.933Z,3.60
2023-03-01T10:36:24.632Z,3.60
2023-03-01T10:38:56.300Z,3.60
2023-03-01T10:41:27.023Z,3.60
2023-03-01T10:43:57.918Z,3.60
2023-03-01T10:46:30.395Z,3.60
2023-03-01T10:49:19.151Z,3.90
2023-03-01T10:51:50.450Z,4.10
2023-03-01T10:54:23.271Z,4.20
2023-03-01T10:56:54.942Z,4.20
2023-03-01T10:59:29.611Z,4.30
2023-03-01T11:02:24.442Z,4.30
2023-03-01T11:05:18.609Z,4.50
2023-03-01T11:07:50.973Z,4.60
2023-03-01T11:10:23.073Z,4.60
2023-03-01T11:12:53.448Z,4.70
2023-03-01T11:15:28.432Z,4.70
2023-03-01T11:18:08.994Z,4.70
2023-03-01T11:20:42.658Z,4.80
2023-03-01T11:23:14.362Z,4.90
2023-03-01T11:25:49.903Z,4.80
2023-03-01T11:28:21.232Z,4.70
2023-03-01T11:31:07.580Z,4.70
2023-03-01T11:33:45.610Z,4.80
2023-03-01T11:36:32.319Z,4.80
2023-03-01T11:39:24.438Z,5.00
2023-03-01T11:42:12.938Z,4.90
2023-03-01T11:44:50.062Z,4.90
2023-03-01T11:47:31.083Z,5.00
2023-03-01T11:50:21.853Z,5.00
2023-03-01T11:53:02.233Z,5.20
2023-03-01T11:55:53.625Z,5.30
2023-03-01T11:59:06.386Z,5.10
2023-03-01T12:01:48.302Z,5.10
2023-03-01T12:04:49.677Z,5.10
2023-03-01T12:07:22.918Z,5.30
2023-03-01T12:10:09.234Z,5.40
2023-03-01T12:12:52.072Z,5.70
2023-03-01T12:15:59.265Z,5.70
2023-03-01T12:19:11.062Z,5.80
2023-03-01T12:21:56.519Z,5.60
2023-03-01T12:24:57.056Z,5.60
2023-03-01T12:27:40.300Z,5.80
2023-03-01T12:30:27.177Z,5.70
2023-03-01T12:33:09.352Z,5.70
2023-03-01T12:36:09.390Z,5.70
2023-03-01T12:38:44.395Z,5.80
2023-03-01T12:41:41.109Z,5.70
2023-03-01T12:44:32.749Z,5.80
2023-03-01T12:47:16.059Z,5.90
2023-03-01T12:49:48.617Z,5.80
2023-03-01T12:52:25.150Z,5.70
2023-03-01T12:54:55.623Z,5.90
2023-03-01T12:57:30.348Z,6.00
2023-03-01T13:00:10.721Z,6.20
2023-03-01T13:02:47.129Z,6.20
2023-03-01T13:05:29.360Z,6.20
2023-03-01T13:08:05.952Z,6.20
2023-03-01T13:10:43.065Z,6.30
2023-03-01T13:13:20.551Z,6.40
2023-03-01T13:15:50.290Z,6.40
2023-03-01T13:18:33.861Z,6.30
2023-03-01T13:21:05.971Z,6.30
2023-03-01T13:23:39.117Z,6.40
2023-03-01T13:26:18.806Z,6.50
2023-03-01T13:29:02.038Z,6.60
2023-03-01T13:32:01.326Z,6.50
2023-03-01T13:35:01.253Z,6.50
2023-03-01T13:37:37.148Z,6.50
2023-03-01T13:40:43.021Z,6.60
2023-03-01T13:43:33.116Z,6.60
2023-03-01T13:46:02.748Z,6.60
2023-03-01T13:48:33.442Z,6.60
2023-03-01T13:51:04.662Z,6.70
2023-03-01T13:53:37.835Z,6.60
2023-03-01T13:56:13.263Z,6.60
2023-03-01T13:58:53.902Z,6.50
2023-03-01T14:01:28.504Z,6.40
2023-03-01T14:03:57.677Z,6.40
2023-03-01T14:06:28.776Z,6.40
2023-03-01T14:09:07.505Z,6.50
2023-03-01T14:12:08.970Z,6.40
2023-03-01T14:30:39.821Z,6.20
2023-03-01T14:33:21.083Z,6.20
2023-03-01T14:35:56.958Z,6.10
2023-03-01T14:38:32.429Z,6.00
2023-03-01T14:41:06.701Z,6.00
2023-03-01T14:43:36.249Z,6.00
2023-03-01T14:46:06.573Z,6.10
2023-03-01T14:48:35.215Z,6.10
2023-03-01T14:51:06.740Z,6.00
2023-03-01T14:53:45.788Z,6.00
2023-03-01T14:56:19.980Z,6.00
2023-03-01T14:58:49.396Z,6.00
2023-03-01T15:01:20.393Z,6.00
2023-03-01T15:03:50.742Z,6.00
2023-03-01T15:06:20.980Z,6.00
2023-03-01T15:08:51.833Z,5.90
2023-03-01T15:11:25.591Z,5.90
2023-03-01T15:13:55.191Z,5.80
2023-03-01T15:16:26.817Z,5.80
2023-03-01T15:18:58.237Z,5.80
2023-03-01T15:21:31.112Z,5.70
2023-03-01T15:24:05.093Z,5.70
2023-03-01T15:26:39.104Z,5.70
2023-03-01T15:29:17.888Z,5.70
2023-03-01T15:31:57.815Z,5.60
2023-03-01T15:34:28.256Z,5.60
2023-03-01T15:37:00.241Z,5.60
2023-03-01T15:39:39.723Z,5.60
2023-03-01T16:14:12.472Z,4.70
2023-03-01T16:16:41.204Z,4.60
2023-03-01T16:19:09.835Z,4.60
2023-03-01T16:21:39.004Z,4.50
2023-03-01T16:24:08.494Z,4.40
2023-03-01T16:26:37.130Z,4.40
2023-03-01T16:29:06.187Z,4.30
2023-03-01T16:31:36.228Z,4.20
2023-03-01T16:34:05.600Z,4.10
2023-03-01T16:36:34.173Z,4.00
2023-03-01T16:39:04.215Z,3.90
2023-03-01T16:41:33.534Z,3.90
2023-03-01T16:44:02.387Z,3.80
2023-03-01T16:46:31.247Z,3.80
2023-03-01T16:49:01.187Z,3.70
2023-03-01T16:51:31.152Z,3.60
2023-03-01T16:54:00.001Z,3.60
2023-03-01T16:56:28.690Z,3.60
2023-03-01T16:58:57.280Z,3.50
2023-03-01T17:01:27.101Z,3.50
2023-03-01T17:03:55.706Z,3.50
2023-03-01T17:06:27.740Z,3.50
2023-03-01T17:08:56.318Z,3.40
2023-03-01T17:11:24.935Z,3.40
2023-03-01T17:13:53.632Z,3.40
2023-03-01T17:16:23.089Z,3.40
2023-03-01T17:18:51.828Z,3.40
2023-03-01T17:21:20.483Z,3.30
2023-03-01T17:23:52.238Z,3.30
2023-03-01T17:26:20.826Z,3.20
2023-03-01T17:28:52.800Z,3.20
2023-03-01T17:31:22.157Z,3.10
2023-03-01T17:33:52.391Z,3.10
2023-03-01T17:36:20.966Z,3.10
2023-03-01T17:38:52.054Z,3.00
2023-03-01T17:41:21.980Z,3.00
2023-03-01T17:43:50.503Z,2.90
2023-03-01T17:46:19.279Z,2.80
2023-03-01T17:48:47.890Z,2.80
2023-03-01T17:51:16.444Z,2.80
2023-03-01T17:53:45.018Z,2.80
2023-03-01T17:56:14.995Z,2.70
2023-03-01T17:58:43.581Z,2.70
2023-03-01T18:01:14.710Z,2.70
2023-03-01T18:03:46.519Z,2.60
2023-03-01T18:06:17.454Z,2.50
2023-03-01T18:08:46.870Z,2.40
2023-03-01T18:11:16.915Z,2.40
2023-03-01T18:13:46.207Z,2.30
2023-03-01T18:16:17.102Z,2.30
2023-03-01T18:18:46.393Z,2.40
2023-03-01T18:21:15.618Z,2.40
2023-03-01T18:23:44.192Z,2.40
2023-03-01T18:26:15.821Z,2.40
2023-03-01T18:28:47.700Z,2.40
2023-03-01T18:31:18.904Z,2.40
2023-03-01T18:33:48.475Z,2.40
2023-03-01T18:36:22.693Z,2.30
2023-03-01T18:38:53.111Z,2.30
2023-03-01T18:41:21.726Z,2.30
2023-03-01T18:43:51.762Z,2.20
2023-03-01T18:46:21.215Z,2.20
2023-03-01T18:48:50.217Z,2.20
2023-03-01T18:51:20.869Z,2.20
2023-03-01T18:53:49.494Z,2.10
2023-03-01T18:56:18.169Z,2.00
2023-03-01T18:58:46.755Z,2.00
2023-03-01T19:01:18.523Z,2.00
2023-03-01T19:03:47.530Z,1.90
2023-03-01T19:06:16.988Z,1.90
2023-03-01T19:08:46.149Z,1.80
2023-03-01T19:11:17.721Z,1.80
2023-03-01T19:13:47.904Z,1.80
2023-03-01T19:16:20.472Z,1.80
2023-03-01T19:18:51.433Z,1.80
2023-03-01T19:21:22.622Z,1.80
2023-03-01T19:23:51.164Z,1.80
2023-03-01T19:26:21.738Z,1.90
2023-03-01T19:28:50.600Z,1.90
2023-03-01T19:31:24.204Z,2.00
2023-03-01T19:33:59.538Z,2.00
2023-03-01T19:36:35.054Z,1.90
2023-03-01T19:39:04.890Z,1.90
2023-03-01T19:41:33.666Z,1.80
2023-03-01T19:44:05.520Z,1.90
2023-03-01T19:46:35.985Z,1.80
2023-03-01T19:49:05.085Z,1.80
2023-03-01T19:51:36.508Z,1.70
2023-03-01T19:54:06.519Z,1.70
2023-03-01T19:56:35.828Z,1.60
2023-03-01T19:59:05.091Z,1.50
2023-03-01T20:01:35.499Z,1.40
2023-03-01T20:04:05.034Z,1.40
2023-03-01T20:06:34.080Z,1.40
2023-03-01T20:09:15.369Z,1.30
2023-03-01T20:11:49.329Z,1.30
2023-03-01T20:14:17.905Z,1.20
2023-03-01T20:16:47.877Z,1.10
2023-03-01T20:19:16.475Z,1.10
2023-03-01T20:21:45.116Z,1.00
2023-03-01T20:24:13.772Z,0.90
2023-03-01T20:26:42.483Z,0.90
2023-03-01T20:29:12.775Z,0.90
2023-03-01T20:31:42.702Z,0.90
2023-03-01T20:34:12.819Z,0.90
2023-03-01T20:36:42.861Z,0.90
2023-03-01T20:39:12.193Z,0.80
2023-03-01T20:41:41.234Z,0.80
2023-03-01T20:44:10.135Z,0.80
2023-03-01T20:46:38.892Z,0.80
2023-03-01T20:49:07.919Z,0.70
2023-03-01T20:51:37.976Z,0.70
2023-03-01T20:54:06.715Z,0.60
2023-03-01T20:56:35.584Z,0.60
2023-03-01T20:59:05.468Z,0.60
2023-03-01T21:01:34.054Z,0.60
2023-03-01T21:04:02.762Z,0.50
2023-03-01T21:06:32.150Z,0.50
2023-03-01T21:09:02.382Z,0.50
2023-03-01T21:11:31.014Z,0.50
2023-03-01T21:13:59.545Z,0.50
2023-03-01T21:16:28.427Z,0.40
2023-03-01T21:18:56.990Z,0.30
2023-03-01T21:21:25.550Z,0.20
2023-03-01T21:23:55.540Z,0.10
2023-03-01T21:26:26.879Z,0.00
2023-03-01T21:28:57.359Z,0.00
2023-03-01T21:31:28.639Z,0.10
2023-03-01T21:33:58.549Z,0.10
2023-03-01T21:36:29.681Z,0.10
2023-03-01T21:39:00.777Z,0.10
2023-03-01T21:41:32.209Z,0.10
2023-03-01T21:44:03.099Z,0.10
2023-03-01T21:46:36.677Z,0.00
2023-03-01T21:49:07.310Z,0.10
2023-03-01T21:51:37.096Z,-0.10
2023-03-01T21:54:06.903Z,-0.10
2023-03-01T21:56:39.301Z,-0.10
2023-03-01T21:59:09.609Z,-0.20
2023-03-01T22:01:38.118Z,-0.40
2023-03-01T22:04:06.819Z,-0.60
2023-03-01T22:06:40.461Z,-0.70
2023-03-01T22:09:12.720Z,-0.90
2023-03-01T22:11:44.487Z,-1.00
2023-03-01T22:14:14.128Z,-1.10
2023-03-01T22:16:45.309Z,-1.20
2023-03-01T22:19:15.135Z,-1.20
2023-03-01T22:21:45.644Z,-1.20
2023-03-01T22:24:15.195Z,-1.10
2023-03-01T22:26:46.942Z,-1.00
2023-03-01T22:29:17.459Z,-0.90
2023-03-01T22:31:46.670Z,-0.70
2023-03-01T22:34:17.266Z,-0.60
2023-03-01T22:36:46.760Z,-0.60
2023-03-01T22:39:16.643Z,-0.70
2023-03-01T22:41:48.870Z,-0.70
2023-03-01T22:44:24.395Z,-0.80
2023-03-01T22:46:53.225Z,-0.80
2023-03-01T22:49:22.411Z,-0.90
2023-03-01T22:51:51.643Z,-1.00
2023-03-01T22:54:20.920Z,-1.10
2023-03-01T22:56:51.555Z,-1.10
2023-03-01T22:59:23.165Z,-1.20
2023-03-01T23:01:53.285Z,-1.20
2023-03-01T23:04:22.946Z,-1.20
2023-03-01T23:06:54.226Z,-1.20
2023-03-01T23:09:26.524Z,-1.10
2023-03-01T23:11:57.089Z,-1.20
2023-03-01T23:14:26.193Z,-1.20
2023-03-01T23:16:55.195Z,-1.20
2023-03-01T23:19:24.100Z,-1.20
2023-03-01T23:21:59.175Z,-1.20
2023-03-01T23:24:31.787Z,-1.20
2023-03-01T23:27:03.510Z,-1.20
2023-03-01T23:29:32.755Z,-1.30
2023-03-01T23:32:01.886Z,-1.40
2023-03-01T23:34:31.487Z,-1.50
2023-03-01T23:37:00.030Z,-1.60
2023-03-01T23:39:30.052Z,-1.70
2023-03-01T23:41:58.966Z,-1.70
2023-03-01T23:44:28.917Z,-1.60
2023-03-01T23:46:57.578Z,-1.60
2023-03-01T23:49:26.143Z,-1.60
2023-03-01T23:51:54.654Z,-1.60
2023-03-01T23:54:25.710Z,-1.70
2023-03-01T23:56:54.482Z,-1.70
2023-03-01T23:59:24.264Z,-1.80
